This is the latest recevied weather packets stored in our database for station/object N6OL. If no packets are shown the sender has not sent any weather packets the latest 10 day(s).
| Time | Temp. | Humidity | Pressure | Rain* | Wind** | Luminosity | Snow |
|---|---|---|---|---|---|---|---|
| 1777534503 | 11.67° C | 84% | 1016.3 hPa | 0 mm | - | 0 W/m² | - |
| 1777532703 | 11.67° C | 83% | 1016.5 hPa | 0 mm | - | 0 W/m² | - |
| 1777532124 | 11.67° C | 83% | 1016.5 hPa | 0 mm | - | 0 W/m² | - |
| 1777530003 | 12.22° C | 82% | 1016.5 hPa | 0 mm | - | 0 W/m² | - |
| 1777529724 | 12.22° C | 82% | 1016.5 hPa | 0 mm | - | 0 W/m² | - |
| 1777526703 | 12.78° C | 80% | 1016.6 hPa | 0 mm | - | 0 W/m² | - |
| 1777525824 | 12.78° C | 78% | 1016.7 hPa | 0 mm | - | 0 W/m² | - |
| 1777525503 | 12.78° C | 78% | 1016.8 hPa | 0 mm | - | 0 W/m² | - |
| 1777524904 | 12.78° C | 79% | 1016.6 hPa | 0 mm | - | 0 W/m² | - |
| 1777523703 | 12.78° C | 80% | 1016.6 hPa | 0 mm | - | 0 W/m² | - |
| 1777521003 | 13.33° C | 79% | 1016.4 hPa | 0 mm | - | 0 W/m² | - |
| 1777520124 | 13.33° C | 79% | 1016.3 hPa | 0 mm | - | 0 W/m² | - |
| 1777518603 | 13.89° C | 75% | 1015.9 hPa | 0 mm | - | 0 W/m² | - |
| 1777518024 | 14.44° C | 73% | 1015.9 hPa | 0 mm | - | 0 W/m² | - |
| 1777517703 | 14.44° C | 72% | 1015.9 hPa | 0 mm | - | 5 W/m² | - |
| 1777516803 | 15.56° C | 68% | 1015.7 hPa | 0 mm | - | 16 W/m² | - |
| 1777514703 | 15.56° C | 67% | 1015.8 hPa | 0 mm | - | 93 W/m² | - |
| 1777509003 | 17.22° C | 67% | 1015.8 hPa | 0 mm | - | 392 W/m² | - |
| 1777508403 | 17.22° C | 66% | 1015.8 hPa | 0 mm | - | 420 W/m² | - |
| 1777507824 | 17.78° C | 66% | 1015.7 hPa | 0 mm | - | 450 W/m² | - |
| 1777506903 | 17.78° C | 63% | 1015.8 hPa | 0 mm | - | 492 W/m² | - |
| 1777506003 | 18.33° C | 63% | 1015.9 hPa | 0 mm | - | 531 W/m² | - |
| 1777505424 | 18.33° C | 63% | 1015.9 hPa | 0 mm | - | 548 W/m² | - |
| 1777504803 | 18.33° C | 65% | 1015.8 hPa | 0 mm | - | 584 W/m² | - |
| 1777503603 | 18.89° C | 65% | 1016.2 hPa | 0 mm | - | 628 W/m² | - |
* Rain latest hour (hover to see other rain measurements)
** Current wind speed in m/s (hover to see current wind gust speed)